Time;durP1;ratioP1;P1;durP2;ratioP2;P2;SDS_P1;SDS_P2;PMS_P1;PMS_P2;Temp;Humidity;BMP_temperature;BMP_pressure;BME280_temperature;BME280_humidity;BME280_pressure;Samples;Min_cycle;Max_cycle;Signal;HPM_P1;HPM_P2
2022/07/07 00:01:31;;;;;;;24.08;8.77;;;;;;;19.00;57.25;101649.50;5115740;28;20108;-49
2022/07/07 00:03:58;;;;;;;19.20;7.75;;;;;;;18.77;57.82;101650.44;5115836;28;20047;-52
2022/07/07 00:06:26;;;;;;;23.88;8.35;;;;;;;18.75;58.15;101649.75;5117573;27;20040;-52
2022/07/07 00:08:54;;;;;;;19.75;8.30;;;;;;;18.71;58.54;101643.09;5135387;27;20043;-51
2022/07/07 00:11:23;;;;;;;26.92;8.15;;;;;;;18.80;58.00;101633.09;5128889;27;20035;-51
2022/07/07 00:13:49;;;;;;;21.83;8.57;;;;;;;18.75;58.03;101630.94;5115793;28;20044;-51
2022/07/07 00:16:16;;;;;;;20.63;7.88;;;;;;;18.74;58.34;101631.97;5115340;28;20050;-49
2022/07/07 00:18:43;;;;;;;17.42;7.55;;;;;;;18.65;58.85;101638.47;5115177;28;20110;-48
2022/07/07 00:21:10;;;;;;;19.10;8.20;;;;;;;18.76;58.37;101635.31;5115754;28;20093;-49
2022/07/07 00:23:37;;;;;;;20.42;8.07;;;;;;;18.89;58.18;101634.69;5123296;27;20069;-49
2022/07/07 00:26:04;;;;;;;21.73;7.72;;;;;;;18.78;58.54;101637.81;5136210;27;20055;-49
2022/07/07 00:28:31;;;;;;;23.88;8.07;;;;;;;18.71;58.54;101635.03;5135672;27;20051;-49
2022/07/07 00:30:58;;;;;;;19.40;7.43;;;;;;;18.76;58.87;101626.44;5136038;27;20095;-49
2022/07/07 00:33:24;;;;;;;18.05;7.82;;;;;;;18.74;58.66;101623.91;5135697;27;20413;-49
2022/07/07 00:35:53;;;;;;;18.05;7.38;;;;;;;18.72;58.76;101622.41;5135740;27;20035;-49
2022/07/07 00:38:20;;;;;;;23.40;8.05;;;;;;;18.78;58.72;101613.63;5135749;27;20447;-49
2022/07/07 00:40:50;;;;;;;22.35;7.47;;;;;;;18.73;59.12;101607.97;5135698;27;20047;-49
2022/07/07 00:43:20;;;;;;;21.08;7.38;;;;;;;18.69;58.92;101601.31;5135774;27;20043;-49
2022/07/07 00:45:49;;;;;;;17.63;7.53;;;;;;;18.61;59.46;101592.34;5135937;27;20078;-50
2022/07/07 00:48:18;;;;;;;17.98;7.32;;;;;;;18.58;59.46;101576.56;5135672;27;20267;-48
2022/07/07 00:50:46;;;;;;;20.48;7.50;;;;;;;18.51;60.01;101583.72;5135081;27;20067;-49
2022/07/07 00:53:13;;;;;;;17.85;7.35;;;;;;;18.73;59.24;101575.72;5135364;27;20493;-48
2022/07/07 00:55:40;;;;;;;15.90;7.18;;;;;;;18.61;59.66;101578.06;5124004;27;20106;-49
2022/07/07 00:58:07;;;;;;;20.00;7.78;;;;;;;18.72;59.41;101579.41;5115015;28;20071;-49
2022/07/07 01:00:34;;;;;;;13.00;6.60;;;;;;;18.75;59.54;101582.56;5125094;27;20092;-50
2022/07/07 01:03:01;;;;;;;14.63;6.70;;;;;;;18.73;59.39;101573.03;5135409;27;20050;-50
2022/07/07 01:05:30;;;;;;;14.93;6.90;;;;;;;18.73;59.38;101581.09;5135126;27;20042;-51
2022/07/07 01:07:57;;;;;;;16.85;6.60;;;;;;;18.73;59.37;101568.50;5117285;27;20039;-50
2022/07/07 01:10:25;;;;;;;18.85;6.30;;;;;;;18.68;59.32;101573.63;5117433;27;20122;-51
2022/07/07 01:12:52;;;;;;;12.27;5.70;;;;;;;18.71;59.44;101578.59;5134987;27;20039;-49
2022/07/07 01:15:18;;;;;;;12.07;5.72;;;;;;;18.64;59.63;101569.63;5135285;27;20100;-48
2022/07/07 01:17:45;;;;;;;12.23;4.88;;;;;;;18.65;59.90;101579.34;5135368;27;20039;-50
2022/07/07 01:20:13;;;;;;;14.05;5.10;;;;;;;18.73;59.73;101575.72;5135108;27;20047;-48
2022/07/07 01:22:48;;;;;;;14.65;5.07;;;;;;;18.68;59.88;101573.63;5135270;27;20043;-48
2022/07/07 01:25:14;;;;;;;15.57;4.47;;;;;;;18.57;60.60;101564.19;5135272;27;20058;-51
2022/07/07 01:27:41;;;;;;;11.50;4.72;;;;;;;18.66;60.50;101556.81;5134240;27;20074;-48
2022/07/07 01:30:09;;;;;;;11.50;4.20;;;;;;;18.57;61.03;101553.44;5134858;27;20078;-49
2022/07/07 01:32:36;;;;;;;13.93;4.30;;;;;;;18.54;61.35;101552.97;5135044;27;20047;-48
2022/07/07 01:35:04;;;;;;;13.07;4.22;;;;;;;18.46;61.99;101548.50;5126575;27;20047;-49
2022/07/07 01:37:33;;;;;;;9.80;4.03;;;;;;;18.40;62.24;101544.72;5116219;27;20050;-49
2022/07/07 01:40:01;;;;;;;9.32;4.20;;;;;;;18.47;62.38;101542.13;5114172;28;20078;-51
2022/07/07 01:42:28;;;;;;;9.55;4.03;;;;;;;18.52;62.56;101541.56;5132806;27;20074;-49
2022/07/07 01:44:54;;;;;;;12.95;4.03;;;;;;;18.38;63.25;101544.06;5134878;27;20043;-48
2022/07/07 01:47:23;;;;;;;9.95;3.88;;;;;;;18.33;63.57;101537.59;5134626;27;20488;-48
2022/07/07 01:49:50;;;;;;;9.52;4.10;;;;;;;18.41;63.37;101526.78;5134154;27;20047;-49
2022/07/07 01:52:17;;;;;;;11.63;4.30;;;;;;;18.31;64.00;101513.59;5130656;27;20067;-49
2022/07/07 01:54:44;;;;;;;11.18;4.00;;;;;;;18.25;64.20;101521.59;5133601;27;20092;-51
2022/07/07 01:57:11;;;;;;;11.00;4.00;;;;;;;18.26;64.58;101504.44;5134034;27;20047;-50
2022/07/07 01:59:38;;;;;;;10.77;4.00;;;;;;;18.21;65.02;101511.22;5134139;27;20125;-52
2022/07/07 02:02:05;;;;;;;11.35;4.28;;;;;;;18.25;65.05;101498.25;5115784;27;20059;-52
2022/07/07 02:04:32;;;;;;;10.18;4.38;;;;;;;18.35;64.57;101497.94;5133612;27;20446;-51
2022/07/07 02:06:59;;;;;;;11.70;4.05;;;;;;;18.21;65.59;101495.09;5134138;27;20073;-47
2022/07/07 02:09:26;;;;;;;10.75;4.30;;;;;;;18.31;65.39;101491.28;5134114;28;20177;-49
2022/07/07 02:11:53;;;;;;;13.80;4.10;;;;;;;18.15;65.94;101498.50;5134151;28;20488;-49
2022/07/07 02:14:20;;;;;;;12.07;4.20;;;;;;;18.13;66.08;101491.69;5134303;28;20047;-51
2022/07/07 02:16:47;;;;;;;9.77;4.10;;;;;;;18.17;66.09;101493.81;5116075;28;20065;-50
2022/07/07 02:19:14;;;;;;;10.93;4.47;;;;;;;18.35;65.73;101496.09;5133974;28;20066;-49
2022/07/07 02:21:40;;;;;;;15.13;4.93;;;;;;;18.41;65.77;101503.41;5134292;28;20096;-50
2022/07/07 02:24:07;;;;;;;11.00;4.20;;;;;;;18.31;66.09;101496.66;5134152;28;20054;-49
2022/07/07 02:26:34;;;;;;;11.38;4.70;;;;;;;18.34;65.93;101490.94;5134129;28;20054;-49
2022/07/07 02:29:02;;;;;;;14.40;4.60;;;;;;;18.29;66.36;101483.44;5133122;28;20114;-51
2022/07/07 02:31:29;;;;;;;11.90;4.78;;;;;;;18.32;66.51;101485.75;5112979;28;20044;-49
2022/07/07 02:33:56;;;;;;;11.75;5.00;;;;;;;18.14;67.50;101485.31;5113568;28;20044;-49
2022/07/07 02:36:23;;;;;;;13.88;5.07;;;;;;;18.23;66.97;101482.31;5113688;28;20059;-50
2022/07/07 02:38:50;;;;;;;11.88;5.05;;;;;;;17.96;68.40;101483.81;5114461;28;20051;-49
2022/07/07 02:41:19;;;;;;;12.50;4.82;;;;;;;18.12;67.88;101485.47;5117910;28;20404;-51
2022/07/07 02:43:46;;;;;;;13.43;5.00;;;;;;;18.23;67.74;101495.75;5117565;28;20050;-50
2022/07/07 02:46:12;;;;;;;12.73;5.22;;;;;;;18.20;68.03;101492.59;5117801;28;20074;-49
2022/07/07 02:48:39;;;;;;;16.98;5.10;;;;;;;18.19;67.97;101491.78;5117484;28;20051;-51
2022/07/07 02:51:06;;;;;;;13.25;5.65;;;;;;;18.12;68.29;101479.25;5117243;28;20461;-50
2022/07/07 02:53:34;;;;;;;15.32;5.00;;;;;;;18.07;68.44;101487.88;5117174;28;20048;-49
2022/07/07 02:56:01;;;;;;;15.82;5.15;;;;;;;18.08;68.58;101486.88;5117688;28;20054;-50
2022/07/07 02:58:27;;;;;;;11.57;5.30;;;;;;;18.08;68.81;101475.28;5117617;28;20043;-49
2022/07/07 03:00:54;;;;;;;14.45;5.32;;;;;;;18.05;68.80;101481.06;5117127;28;20100;-51
2022/07/07 03:03:21;;;;;;;12.45;5.53;;;;;;;18.07;69.00;101482.53;5116593;28;20405;-49
2022/07/07 03:05:49;;;;;;;10.77;5.47;;;;;;;18.09;68.93;101479.66;5118525;27;20043;-51
2022/07/07 03:08:16;;;;;;;10.48;5.00;;;;;;;18.10;68.94;101483.97;5117790;27;20040;-52
2022/07/07 03:10:42;;;;;;;14.15;5.03;;;;;;;17.98;69.38;101476.41;5118735;27;20050;-49
2022/07/07 03:13:10;;;;;;;13.77;5.10;;;;;;;18.08;69.14;101484.19;5137365;27;20112;-49
2022/07/07 03:15:37;;;;;;;14.60;5.20;;;;;;;18.18;68.79;101483.91;5137526;27;20050;-49
2022/07/07 03:18:04;;;;;;;10.82;4.50;;;;;;;18.01;69.37;101481.41;5137310;27;20050;-52
2022/07/07 03:20:31;;;;;;;18.25;5.25;;;;;;;18.04;69.26;101482.88;5137245;27;20039;-51
2022/07/07 03:22:57;;;;;;;17.88;5.47;;;;;;;18.05;69.28;101483.72;5134822;27;20050;-50
2022/07/07 03:25:24;;;;;;;11.88;5.03;;;;;;;17.97;69.69;101477.44;5116741;28;20048;-52
2022/07/07 03:27:51;;;;;;;16.48;5.13;;;;;;;18.08;69.39;101477.97;5116539;28;20048;-50
2022/07/07 03:30:17;;;;;;;12.23;4.88;;;;;;;18.10;69.39;101474.09;5116545;28;20092;-52
2022/07/07 03:32:44;;;;;;;11.18;4.40;;;;;;;18.05;69.83;101467.63;5116862;27;20047;-49
2022/07/07 03:35:11;;;;;;;14.25;5.55;;;;;;;18.01;69.88;101478.72;5136517;27;20043;-49
2022/07/07 03:37:38;;;;;;;14.13;4.95;;;;;;;18.07;69.37;101470.97;5136866;27;20509;-49
2022/07/07 03:40:06;;;;;;;11.43;4.78;;;;;;;18.10;69.76;101473.25;5137753;27;20035;-48
2022/07/07 03:42:34;;;;;;;21.45;5.18;;;;;;;18.03;70.63;101473.19;5136759;27;20043;-49
2022/07/07 03:45:01;;;;;;;13.88;4.90;;;;;;;17.98;71.07;101470.22;5136819;27;20118;-50
2022/07/07 03:47:28;;;;;;;20.67;4.93;;;;;;;18.00;70.92;101469.00;5136756;27;20046;-49
2022/07/07 03:49:55;;;;;;;10.05;4.53;;;;;;;17.95;71.08;101468.72;5136571;27;20051;-48
2022/07/07 03:52:22;;;;;;;15.02;5.32;;;;;;;17.95;71.34;101467.88;5136093;27;20050;-49
2022/07/07 03:54:49;;;;;;;11.95;5.20;;;;;;;17.90;71.49;101468.47;5129977;27;20052;-50
2022/07/07 03:57:16;;;;;;;12.38;4.47;;;;;;;18.03;70.99;101455.22;5116161;28;20511;-49
2022/07/07 03:59:42;;;;;;;13.15;5.10;;;;;;;18.02;71.92;101450.03;5119695;27;20039;-48
2022/07/07 04:02:09;;;;;;;12.57;4.78;;;;;;;17.96;72.16;101451.59;5136020;27;20051;-49
2022/07/07 04:04:37;;;;;;;12.02;4.55;;;;;;;17.89;72.52;101447.16;5135816;27;20141;-49
2022/07/07 04:07:04;;;;;;;14.52;4.75;;;;;;;17.96;72.16;101446.22;5136887;27;20039;-50
2022/07/07 04:09:31;;;;;;;15.98;5.00;;;;;;;17.90;72.54;101452.34;5136586;27;20047;-49
2022/07/07 04:11:58;;;;;;;14.50;4.80;;;;;;;17.99;71.96;101437.81;5136330;27;20051;-49
2022/07/07 04:14:25;;;;;;;10.40;4.72;;;;;;;18.05;71.60;101438.91;5136180;27;20043;-49
2022/07/07 04:16:52;;;;;;;12.00;4.85;;;;;;;17.91;72.54;101427.16;5136561;27;20050;-51
2022/07/07 04:19:19;;;;;;;14.80;4.82;;;;;;;17.87;72.45;101423.19;5136380;27;20039;-50
2022/07/07 04:21:45;;;;;;;16.40;5.03;;;;;;;17.88;72.62;101424.00;5136507;27;20609;-50
2022/07/07 04:24:12;;;;;;;14.15;5.32;;;;;;;18.01;72.07;101413.47;5136147;27;20130;-50
2022/07/07 04:26:39;;;;;;;13.18;4.80;;;;;;;18.06;72.24;101410.22;5136400;27;20043;-50
2022/07/07 04:29:06;;;;;;;13.27;4.90;;;;;;;18.06;71.75;101407.53;5135912;27;20100;-50
2022/07/07 04:31:33;;;;;;;11.80;5.03;;;;;;;17.93;72.63;101414.38;5130349;27;20043;-49
2022/07/07 04:33:59;;;;;;;13.77;5.30;;;;;;;18.01;72.49;101424.22;5101229;28;20054;-51
2022/07/07 04:36:26;;;;;;;11.20;4.43;;;;;;;18.01;72.59;101419.66;5115653;28;20047;-50
2022/07/07 04:38:53;;;;;;;11.10;4.78;;;;;;;18.00;72.59;101428.72;5110814;27;20051;-49
2022/07/07 04:41:19;;;;;;;12.50;4.82;;;;;;;17.90;72.89;101422.84;5135884;27;20044;-51
2022/07/07 04:43:47;;;;;;;12.52;4.93;;;;;;;17.94;72.82;101415.25;5135605;27;20051;-50
2022/07/07 04:46:13;;;;;;;12.40;5.00;;;;;;;18.00;72.80;101417.16;5135722;27;20047;-50
2022/07/07 04:48:40;;;;;;;11.55;4.90;;;;;;;17.92;73.25;101418.09;5135613;27;20043;-48
2022/07/07 04:51:07;;;;;;;14.98;4.93;;;;;;;18.00;73.08;101423.34;5121092;27;20043;-52
2022/07/07 04:53:34;;;;;;;16.10;5.20;;;;;;;17.94;73.16;101429.47;5114795;28;20082;-49
2022/07/07 04:56:00;;;;;;;12.85;5.07;;;;;;;17.90;74.22;101416.59;5114909;28;20128;-49
2022/07/07 04:58:27;;;;;;;13.45;5.05;;;;;;;17.87;75.24;101411.63;5114750;28;20430;-49
2022/07/07 05:00:54;;;;;;;12.77;5.68;;;;;;;17.95;74.96;101417.72;5114253;28;20055;-50
2022/07/07 05:03:24;;;;;;;13.70;4.95;;;;;;;17.96;74.50;101423.94;5113446;28;20054;-51
2022/07/07 05:05:51;;;;;;;12.77;4.68;;;;;;;17.88;75.15;101410.59;5114323;28;20050;-49
2022/07/07 05:08:17;;;;;;;12.38;4.78;;;;;;;17.87;75.03;101425.06;5114820;28;20051;-49
2022/07/07 05:10:44;;;;;;;12.20;4.90;;;;;;;17.74;76.91;101423.00;5114516;28;20039;-49
2022/07/07 05:13:11;;;;;;;13.40;5.20;;;;;;;17.73;79.40;101418.63;5114605;28;20542;-51
2022/07/07 05:15:39;;;;;;;13.45;5.15;;;;;;;17.54;80.51;101422.69;5113895;28;20073;-52
2022/07/07 05:18:05;;;;;;;14.35;5.80;;;;;;;17.43;81.72;101422.13;5114608;28;20051;-52
2022/07/07 05:20:32;;;;;;;12.52;5.45;;;;;;;17.36;82.21;101431.06;5114052;28;20036;-50
2022/07/07 05:22:58;;;;;;;16.55;6.22;;;;;;;17.27;83.61;101428.47;5114511;28;20754;-50
2022/07/07 05:25:25;;;;;;;17.55;6.18;;;;;;;17.16;85.04;101441.47;5114025;28;20043;-52
2022/07/07 05:27:53;;;;;;;14.43;6.47;;;;;;;17.14;87.39;101444.34;5130355;27;20088;-49
2022/07/07 05:30:20;;;;;;;14.90;6.35;;;;;;;17.01;89.74;101452.16;5133917;27;20043;-51
2022/07/07 05:32:47;;;;;;;17.27;7.30;;;;;;;16.97;91.13;101464.22;5134717;27;20104;-50
2022/07/07 05:35:13;;;;;;;18.95;8.18;;;;;;;16.99;91.00;101463.06;5134802;27;20508;-50
2022/07/07 05:37:41;;;;;;;17.55;7.03;;;;;;;16.99;91.32;101457.69;5134631;27;20043;-51
2022/07/07 05:40:09;;;;;;;12.13;6.45;;;;;;;16.83;90.53;101461.31;5134956;27;20043;-52
2022/07/07 05:42:36;;;;;;;12.60;6.18;;;;;;;16.91;91.86;101475.66;5134360;27;20118;-52
2022/07/07 05:45:03;;;;;;;14.23;6.10;;;;;;;16.87;91.73;101478.69;5134914;27;20057;-49
2022/07/07 05:47:31;;;;;;;11.80;5.60;;;;;;;16.83;90.50;101466.66;5134622;27;20050;-51
2022/07/07 05:49:58;;;;;;;13.27;5.07;;;;;;;16.94;91.50;101478.00;5134423;27;20047;-52
2022/07/07 05:52:26;;;;;;;12.00;5.30;;;;;;;17.05;89.86;101481.09;5134615;27;20043;-50
2022/07/07 05:54:52;;;;;;;10.20;4.97;;;;;;;16.88;91.04;101475.00;5128091;27;20043;-50
2022/07/07 05:57:19;;;;;;;12.80;5.63;;;;;;;16.86;92.77;101470.81;5133915;27;20041;-50
2022/07/07 05:59:46;;;;;;;13.32;5.10;;;;;;;16.71;93.29;101484.13;5133842;27;20092;-50
2022/07/07 06:02:13;;;;;;;11.75;5.07;;;;;;;16.87;93.55;101486.72;5133790;27;20451;-51
2022/07/07 06:04:41;;;;;;;18.33;5.57;;;;;;;16.94;93.39;101492.22;5110418;28;20051;-52
2022/07/07 06:07:08;;;;;;;14.18;5.90;;;;;;;17.01;94.37;101495.03;5117694;27;20112;-50
2022/07/07 06:09:35;;;;;;;16.55;5.63;;;;;;;17.14;91.32;101494.44;5113841;28;20043;-50
2022/07/07 06:12:02;;;;;;;12.82;5.70;;;;;;;17.23;88.90;101493.38;5126385;28;20438;-52
2022/07/07 06:14:28;;;;;;;18.42;5.95;;;;;;;17.19;91.40;101490.22;5134025;27;20054;-55
2022/07/07 06:16:56;;;;;;;16.70;6.07;;;;;;;17.17;89.65;101492.25;5133984;28;20091;-52
2022/07/07 06:19:24;;;;;;;18.50;6.95;;;;;;;17.09;90.74;101503.00;5134252;28;20074;-52
2022/07/07 06:21:51;;;;;;;19.35;8.05;;;;;;;16.98;91.84;101512.28;5095937;28;20722;-53
2022/07/07 06:24:18;;;;;;;18.35;8.13;;;;;;;17.02;93.96;101504.72;5120226;28;20555;-52
2022/07/07 06:26:45;;;;;;;17.13;7.15;;;;;;;16.98;94.81;101511.47;5113250;28;20069;-51
2022/07/07 06:29:12;;;;;;;18.60;6.80;;;;;;;16.88;92.77;101507.19;5113461;28;20139;-51
2022/07/07 06:31:38;;;;;;;12.73;5.82;;;;;;;16.96;96.21;101508.13;5113586;28;20101;-51
2022/07/07 06:34:05;;;;;;;10.55;5.55;;;;;;;16.81;93.29;101516.06;5094936;28;20040;-51
2022/07/07 06:36:32;;;;;;;9.77;5.32;;;;;;;16.81;95.33;101511.53;5113367;28;20044;-52
2022/07/07 06:38:59;;;;;;;10.82;4.93;;;;;;;16.92;92.28;101510.34;5113368;28;20485;-52
2022/07/07 06:41:34;;;;;;;13.13;4.88;;;;;;;16.78;92.71;101516.41;5113582;28;20047;-49
2022/07/07 06:44:02;;;;;;;11.57;4.03;;;;;;;16.89;93.10;101505.31;5113537;28;20126;-50
2022/07/07 06:46:29;;;;;;;8.27;3.33;;;;;;;16.80;92.67;101519.75;5113112;28;20047;-52
2022/07/07 06:48:56;;;;;;;8.30;3.03;;;;;;;16.77;93.99;101525.44;5113300;28;20067;-50
2022/07/07 06:51:23;;;;;;;7.00;2.53;;;;;;;16.80;93.02;101517.06;5094644;28;20035;-54
2022/07/07 06:53:50;;;;;;;12.98;2.72;;;;;;;16.97;93.08;101528.53;5113080;28;20093;-50
2022/07/07 06:56:17;;;;;;;8.18;2.67;;;;;;;17.03;90.37;101530.53;5129961;28;20070;-52
2022/07/07 06:58:44;;;;;;;9.27;2.88;;;;;;;17.07;92.49;101529.97;5133581;28;20047;-50
2022/07/07 07:01:11;;;;;;;12.43;3.15;;;;;;;16.94;89.57;101534.28;5116862;28;20075;-52
2022/07/07 07:03:37;;;;;;;9.10;2.80;;;;;;;17.09;88.35;101535.16;5112545;28;20040;-51
2022/07/07 07:06:05;;;;;;;9.48;3.50;;;;;;;17.14;91.44;101535.47;5113177;28;20040;-52
2022/07/07 07:08:31;;;;;;;14.32;3.60;;;;;;;17.29;92.54;101530.19;5113855;28;20493;-51
2022/07/07 07:10:58;;;;;;;10.13;2.90;;;;;;;17.25;89.22;101536.91;5131914;28;20047;-51
2022/07/07 07:13:25;;;;;;;7.22;3.28;;;;;;;17.42;88.38;101540.28;5133696;28;20138;-50
2022/07/07 07:15:52;;;;;;;9.38;3.58;;;;;;;17.36;87.75;101544.53;5133207;28;20047;-51
2022/07/07 07:18:20;;;;;;;9.27;3.40;;;;;;;17.29;87.60;101543.59;5115795;28;20050;-52
2022/07/07 07:20:46;;;;;;;7.38;3.17;;;;;;;17.36;87.70;101539.16;5133594;28;20075;-54
2022/07/07 07:23:13;;;;;;;10.18;3.58;;;;;;;17.53;88.94;101549.75;5133639;28;20047;-50
2022/07/07 07:25:40;;;;;;;10.32;3.42;;;;;;;17.64;87.84;101547.50;5134256;27;20047;-52
2022/07/07 07:28:07;;;;;;;8.85;3.25;;;;;;;17.40;87.83;101553.88;5137447;27;20050;-51
2022/07/07 07:30:33;;;;;;;14.30;3.67;;;;;;;17.42;87.33;101551.84;5136216;27;20042;-52
2022/07/07 07:33:00;;;;;;;9.57;3.00;;;;;;;17.30;85.94;101557.81;5123083;27;20132;-53
2022/07/07 07:35:27;;;;;;;9.25;3.90;;;;;;;17.23;89.94;101569.25;5117195;27;20051;-51
2022/07/07 07:37:54;;;;;;;8.50;3.03;;;;;;;17.17;87.14;101555.72;5117431;27;20557;-53
2022/07/07 07:40:21;;;;;;;12.85;2.70;;;;;;;17.22;87.04;101562.22;5117343;27;20042;-56
2022/07/07 07:42:47;;;;;;;8.20;2.63;;;;;;;17.31;86.76;101568.38;5123619;27;20550;-53
2022/07/07 07:45:14;;;;;;;7.35;2.88;;;;;;;17.34;86.26;101577.91;5127265;27;20039;-47
2022/07/07 07:47:43;;;;;;;9.93;3.28;;;;;;;17.36;87.25;101579.41;5123657;27;20104;-48
2022/07/07 07:50:13;;;;;;;8.68;2.90;;;;;;;17.33;85.96;101586.97;5126555;27;20127;-48
2022/07/07 07:52:42;;;;;;;12.43;3.17;;;;;;;17.31;85.32;101589.81;5129719;27;20087;-48
2022/07/07 07:55:11;;;;;;;8.88;2.70;;;;;;;17.31;83.42;101584.44;5115877;27;20079;-47
2022/07/07 07:57:38;;;;;;;8.20;2.40;;;;;;;17.41;84.82;101584.25;5125457;27;20043;-49
2022/07/07 08:00:08;;;;;;;152.65;79.85;;;;;;;17.64;83.78;101589.56;5124892;27;20179;-47
2022/07/07 08:02:39;;;;;;;11.93;2.63;;;;;;;17.81;81.19;101593.81;5125173;27;20048;-46
2022/07/07 08:05:07;;;;;;;18.80;2.90;;;;;;;17.88;78.09;101598.47;5123378;27;20400;-47
2022/07/07 08:07:34;;;;;;;12.43;2.30;;;;;;;18.09;77.45;101595.09;5133983;27;20043;-49
2022/07/07 08:10:01;;;;;;;10.35;2.28;;;;;;;18.07;76.95;101602.50;5133903;27;20523;-47
2022/07/07 08:12:27;;;;;;;11.02;2.08;;;;;;;17.98;77.58;101599.06;5131360;27;20104;-46
2022/07/07 08:14:54;;;;;;;11.25;2.45;;;;;;;18.10;78.88;101605.66;5123963;27;20555;-47
2022/07/07 08:17:21;;;;;;;13.55;2.45;;;;;;;17.83;76.39;101604.38;5114900;27;20036;-46
2022/07/07 08:19:49;;;;;;;13.82;2.35;;;;;;;17.87;76.89;101605.69;5130896;27;20111;-46
2022/07/07 08:22:24;;;;;;;15.40;2.40;;;;;;;17.78;77.20;101601.38;5127530;27;20051;-48
2022/07/07 08:24:50;;;;;;;16.10;3.72;;;;;;;17.80;77.75;101612.75;5118223;27;20047;-47
2022/07/07 08:27:17;;;;;;;34.20;13.65;;;;;;;17.67;76.49;101615.22;5127193;27;20434;-47
2022/07/07 08:29:44;;;;;;;19.00;4.32;;;;;;;17.57;76.11;101631.53;5134480;27;20050;-47
2022/07/07 08:32:12;;;;;;;10.27;2.42;;;;;;;17.46;77.29;101625.59;5119686;27;20074;-48
2022/07/07 08:34:39;;;;;;;11.32;2.55;;;;;;;17.51;75.76;101632.28;5125164;27;20117;-50
2022/07/07 08:37:08;;;;;;;12.52;2.10;;;;;;;17.50;74.19;101634.13;5130530;27;20052;-50
2022/07/07 08:39:35;;;;;;;11.48;2.75;;;;;;;17.70;74.93;101625.56;5131768;27;20054;-51
2022/07/07 08:42:02;;;;;;;10.52;1.98;;;;;;;17.71;71.70;101633.47;5116248;27;20043;-49
2022/07/07 08:44:29;;;;;;;6.35;1.50;;;;;;;17.93;70.33;101644.38;5121520;27;20047;-51
2022/07/07 08:46:56;;;;;;;7.13;1.60;;;;;;;18.28;70.93;101637.53;5116960;27;20039;-50
2022/07/07 08:49:23;;;;;;;8.88;1.58;;;;;;;18.55;69.14;101638.72;5126488;27;20366;-48
2022/07/07 08:51:50;;;;;;;14.43;2.20;;;;;;;18.80;68.49;101641.16;5129134;27;20043;-49
2022/07/07 08:54:17;;;;;;;10.45;2.22;;;;;;;18.68;66.67;101661.44;5128306;27;20040;-50
2022/07/07 08:56:44;;;;;;;9.65;1.90;;;;;;;18.66;67.10;101650.88;5114706;28;20044;-47
2022/07/07 08:59:13;;;;;;;8.50;1.70;;;;;;;18.60;69.77;101652.44;5126182;27;20047;-47
2022/07/07 09:01:41;;;;;;;8.55;1.80;;;;;;;18.55;68.69;101652.16;5118721;27;20528;-49
2022/07/07 09:04:07;;;;;;;8.88;1.77;;;;;;;18.44;67.83;101651.81;5113947;28;20035;-47
2022/07/07 09:06:34;;;;;;;9.95;1.80;;;;;;;18.46;68.73;101665.88;5116900;27;20055;-48
2022/07/07 09:09:03;;;;;;;11.40;2.40;;;;;;;18.59;69.19;101669.63;5117148;27;20132;-49
2022/07/07 09:11:33;;;;;;;8.23;2.00;;;;;;;18.96;66.55;101648.22;5134386;27;20070;-49
2022/07/07 09:14:16;;;;;;;11.60;1.90;;;;;;;18.99;65.93;101658.56;5125014;27;20050;-49
2022/07/07 09:16:43;;;;;;;10.82;1.98;;;;;;;18.86;65.36;101669.16;5120390;27;20093;-47
2022/07/07 09:19:25;;;;;;;9.32;1.85;;;;;;;18.74;65.34;101672.28;5132841;27;20058;-50
2022/07/07 09:21:53;;;;;;;11.45;2.20;;;;;;;18.86;65.06;101677.22;5122093;27;20040;-46
2022/07/07 09:24:19;;;;;;;8.55;1.80;;;;;;;18.89;66.57;101682.25;5101643;27;20096;-47
2022/07/07 09:26:51;;;;;;;11.20;2.08;;;;;;;18.80;67.56;101693.03;5114945;27;20047;-57
2022/07/07 09:29:19;;;;;;;;;;;;;;;18.87;67.36;101681.59;5113935;28;20504;-53
2022/07/07 09:34:29;;;;;;;21.08;4.78;;;;;;;18.64;67.21;101700.47;5106918;27;20400;-54
2022/07/07 09:39:49;;;;;;;20.27;7.80;;;;;;;18.53;69.99;101709.81;5100518;28;20055;-50
2022/07/07 09:42:36;;;;;;;15.23;3.60;;;;;;;18.49;72.97;101713.88;5105106;28;20036;-52
2022/07/07 09:45:07;;;;;;;9.48;1.80;;;;;;;18.38;73.05;101715.97;5110875;28;20089;-49
2022/07/07 09:47:33;;;;;;;9.27;1.85;;;;;;;18.48;71.45;101714.88;5100913;28;20040;-52
2022/07/07 09:50:09;;;;;;;11.50;1.88;;;;;;;18.70;70.37;101708.63;5109891;28;20055;-51
2022/07/07 09:52:37;;;;;;;;;;;;;;;18.79;68.64;101722.78;5098512;28;20481;-50
2022/07/07 09:55:06;;;;;;;7.13;2.35;;;;;;;19.00;67.46;101722.09;5092826;28;19921;-49
2022/07/07 09:57:36;;;;;;;9.60;1.90;;;;;;;18.93;66.25;101737.31;5088749;28;20050;-52
2022/07/07 10:00:04;;;;;;;7.85;1.75;;;;;;;18.99;65.28;101742.78;5089663;28;20464;-51
2022/07/07 10:02:50;;;;;;;11.70;1.90;;;;;;;19.01;64.22;101731.00;5110611;27;20387;-50
2022/07/07 10:05:19;;;;;;;10.15;1.83;;;;;;;19.17;64.85;101733.47;5110114;28;20576;-52
2022/07/07 10:07:49;;;;;;;9.60;1.98;;;;;;;19.32;63.57;101736.19;5110178;28;20043;-49
2022/07/07 10:10:20;;;;;;;8.35;1.60;;;;;;;19.62;62.41;101728.84;5110828;28;20070;-49
2022/07/07 10:12:50;;;;;;;11.18;1.88;;;;;;;19.76;62.40;101729.88;5109610;28;20073;-51
2022/07/07 10:15:18;;;;;;;6.30;1.60;;;;;;;19.43;62.36;101735.69;5110453;28;20098;-53
2022/07/07 10:17:44;;;;;;;10.63;1.80;;;;;;;19.42;61.99;101742.09;5109385;28;20101;-52
2022/07/07 10:20:11;;;;;;;10.05;1.70;;;;;;;19.40;62.08;101754.91;5110637;28;20062;-49
2022/07/07 10:22:40;;;;;;;5.95;1.42;;;;;;;19.28;62.43;101742.94;5110217;28;20135;-49
2022/07/07 10:25:09;;;;;;;4.05;1.35;;;;;;;18.96;61.62;101753.06;5110502;28;20067;-52
2022/07/07 10:27:42;;;;;;;10.90;1.83;;;;;;;19.14;63.64;101758.91;5122576;28;20381;-52
2022/07/07 10:30:09;;;;;;;10.07;1.90;;;;;;;19.24;64.19;101757.78;5130770;27;20048;-50
2022/07/07 10:35:16;;;;;;;8.20;1.70;;;;;;;19.67;63.67;101760.59;5110432;27;20660;-51
2022/07/07 10:37:47;;;;;;;11.35;1.88;;;;;;;19.71;62.44;101762.72;5109774;28;20127;-52
2022/07/07 10:40:24;;;;;;;10.30;1.70;;;;;;;19.83;62.62;101773.00;5110588;28;20044;-52
2022/07/07 10:43:14;;;;;;;7.68;1.88;;;;;;;19.78;62.76;101768.22;5110462;28;20312;-49
2022/07/07 10:45:51;;;;;;;11.32;1.75;;;;;;;19.62;61.89;101763.84;5107620;28;20073;-50
2022/07/07 10:48:41;;;;;;;14.55;2.30;;;;;;;19.27;63.89;101776.25;5104261;28;20052;-50
2022/07/07 10:51:18;;;;;;;8.45;1.63;;;;;;;18.94;63.53;101777.44;5110432;28;20478;-52
2022/07/07 10:54:06;;;;;;;14.75;2.20;;;;;;;19.01;67.40;101784.75;5092602;28;20082;-49
2022/07/07 10:59:49;;;;;;;15.00;1.80;;;;;;;18.67;71.93;101800.34;5109423;27;20387;-51
2022/07/07 11:02:16;;;;;;;6.10;1.50;;;;;;;18.34;68.41;101797.13;5070130;28;20111;-50
2022/07/07 11:04:47;;;;;;;;;;;;;;;18.33;69.45;101801.63;5086660;28;20044;-52
2022/07/07 11:07:19;;;;;;;7.85;1.50;;;;;;;18.37;67.86;101800.28;5111015;28;19962;-51
2022/07/07 11:10:03;;;;;;;7.78;1.63;;;;;;;18.60;67.47;101805.63;5110778;28;20051;-52
2022/07/07 11:12:42;;;;;;;10.32;1.70;;;;;;;18.98;66.71;101804.81;5109595;28;20050;-50
2022/07/07 11:15:36;;;;;;;9.25;1.60;;;;;;;19.28;65.74;101805.66;5110841;28;20139;-53
2022/07/07 11:20:58;;;;;;;8.88;1.55;;;;;;;19.83;63.28;101800.78;5090399;28;20397;-52
2022/07/07 11:23:40;;;;;;;6.22;1.50;;;;;;;19.66;63.88;101800.13;5090799;28;20054;-49
2022/07/07 11:26:07;;;;;;;9.73;1.80;;;;;;;19.37;63.81;101803.69;5090692;28;20048;-52
2022/07/07 11:28:35;;;;;;;8.98;1.73;;;;;;;19.25;64.02;101808.72;5090389;28;20309;-51
2022/07/07 11:31:05;;;;;;;7.50;1.80;;;;;;;18.97;65.64;101811.19;5089745;28;20048;-52
2022/07/07 11:33:33;;;;;;;10.15;2.30;;;;;;;18.85;68.44;101818.06;5090551;28;20044;-52
2022/07/07 11:36:09;;;;;;;9.63;2.15;;;;;;;18.56;71.06;101819.63;5090193;28;20048;-51
2022/07/07 11:38:36;;;;;;;12.10;2.22;;;;;;;18.30;72.24;101826.19;5090031;28;20401;-54